createdAt,value
2023-02-19T00:02:55.923Z,1.23
2023-02-19T00:07:58.406Z,1.18
2023-02-19T00:13:00.882Z,1.12
2023-02-19T00:18:03.474Z,1.02
2023-02-19T00:23:06.014Z,0.93
2023-02-19T00:28:08.478Z,0.89
2023-02-19T00:33:11.138Z,0.87
2023-02-19T00:38:13.632Z,0.82
2023-02-19T00:43:16.156Z,0.78
2023-02-19T00:48:18.650Z,0.72
2023-02-19T00:53:21.129Z,0.69
2023-02-19T00:58:23.670Z,0.65
2023-02-19T01:03:26.745Z,0.60
2023-02-19T01:08:31.165Z,0.57
2023-02-19T01:13:34.286Z,0.55
2023-02-19T01:18:36.896Z,0.58
2023-02-19T01:23:40.008Z,0.63
2023-02-19T01:28:43.193Z,0.65
2023-02-19T01:33:51.512Z,0.67
2023-02-19T01:38:54.693Z,0.68
2023-02-19T01:44:01.126Z,0.70
2023-02-19T01:49:09.719Z,0.78
2023-02-19T01:54:15.995Z,0.85
2023-02-19T01:59:18.836Z,0.92
2023-02-19T02:04:21.359Z,0.97
2023-02-19T02:09:30.852Z,1.04
2023-02-19T02:14:37.271Z,1.13
2023-02-19T02:19:45.647Z,1.22
2023-02-19T02:24:56.524Z,1.30
2023-02-19T02:30:02.108Z,1.39
2023-02-19T02:35:09.186Z,1.48
2023-02-19T02:40:12.185Z,1.54
2023-02-19T02:45:20.495Z,1.61
2023-02-19T02:50:27.437Z,1.68
2023-02-19T02:55:34.450Z,1.74
2023-02-19T03:00:42.004Z,1.81
2023-02-19T03:05:49.070Z,1.86
2023-02-19T03:10:59.438Z,1.87
2023-02-19T03:16:18.106Z,1.93
2023-02-19T03:21:23.267Z,2.01
2023-02-19T03:26:26.463Z,2.03
2023-02-19T03:31:32.126Z,2.02
2023-02-19T03:36:44.007Z,2.02
2023-02-19T03:41:56.141Z,2.04
2023-02-19T03:47:04.811Z,2.05
2023-02-19T03:52:30.104Z,2.10
2023-02-19T03:57:46.344Z,2.11
2023-02-19T04:02:53.656Z,2.13
2023-02-19T04:08:03.465Z,2.16
2023-02-19T04:13:13.306Z,2.21
2023-02-19T04:18:20.248Z,2.24
2023-02-19T04:23:26.908Z,2.27
2023-02-19T04:28:29.860Z,2.28
2023-02-19T04:33:32.351Z,2.26
2023-02-19T04:38:34.854Z,2.24
2023-02-19T04:43:37.328Z,2.23
2023-02-19T04:48:42.920Z,2.20
2023-02-19T04:53:45.380Z,2.12
2023-02-19T04:58:47.870Z,2.03
2023-02-19T05:03:51.285Z,1.95
2023-02-19T05:08:53.789Z,1.90
2023-02-19T05:13:56.351Z,1.87
2023-02-19T05:18:59.199Z,1.81
2023-02-19T05:24:01.722Z,1.75
2023-02-19T05:29:06.680Z,1.76
2023-02-19T05:34:09.159Z,1.75
2023-02-19T05:39:12.223Z,1.76
2023-02-19T05:44:16.951Z,1.76
2023-02-19T05:49:19.534Z,1.73
2023-02-19T05:54:22.046Z,1.71
2023-02-19T05:59:26.305Z,1.70
2023-02-19T06:04:28.873Z,1.73
2023-02-19T06:09:32.260Z,1.73
2023-02-19T06:14:34.772Z,1.74
2023-02-19T06:19:37.314Z,1.77
2023-02-19T06:24:39.905Z,1.83
2023-02-19T06:29:42.508Z,1.88
2023-02-19T06:34:45.038Z,1.98
2023-02-19T06:39:47.543Z,2.10
2023-02-19T06:44:50.030Z,2.22
2023-02-19T06:49:52.557Z,2.30
2023-02-19T06:54:55.045Z,2.41
2023-02-19T06:59:57.566Z,2.55
2023-02-19T07:05:00.118Z,2.68
2023-02-19T07:10:02.708Z,2.80
2023-02-19T07:15:05.430Z,2.89
2023-02-19T07:20:08.259Z,2.98
2023-02-19T07:25:10.787Z,3.11
2023-02-19T07:30:15.556Z,3.23
2023-02-19T07:35:18.083Z,3.27
2023-02-19T07:40:20.846Z,3.30
2023-02-19T07:45:23.421Z,3.38
2023-02-19T07:50:25.958Z,3.44
2023-02-19T07:55:30.602Z,3.45
2023-02-19T08:00:33.114Z,3.56
2023-02-19T08:05:38.356Z,3.67
2023-02-19T08:10:44.015Z,3.81
2023-02-19T08:15:47.237Z,3.90
2023-02-19T08:20:50.184Z,4.21
2023-02-19T08:25:53.695Z,4.48
2023-02-19T08:31:01.751Z,4.58
2023-02-19T08:36:06.521Z,4.57
2023-02-19T08:41:12.701Z,4.56
2023-02-19T08:46:15.427Z,4.49
2023-02-19T08:51:17.989Z,4.32
2023-02-19T08:56:20.510Z,4.18
2023-02-19T09:01:23.777Z,4.11
2023-02-19T09:06:28.583Z,4.20
2023-02-19T09:11:31.097Z,4.37
2023-02-19T09:16:34.891Z,4.52
2023-02-19T09:21:37.423Z,4.70
2023-02-19T09:26:40.010Z,4.89
2023-02-19T09:31:42.647Z,5.18
2023-02-19T09:36:48.257Z,5.43
2023-02-19T09:41:56.070Z,5.65
2023-02-19T09:47:01.077Z,5.93
2023-02-19T09:52:12.716Z,5.94
2023-02-19T09:57:18.560Z,5.73
2023-02-19T10:02:22.645Z,5.58
2023-02-19T10:07:31.644Z,5.54
2023-02-19T10:12:36.586Z,5.56
2023-02-19T10:17:39.088Z,5.55
2023-02-19T10:22:41.713Z,5.64
2023-02-19T10:27:44.449Z,5.74
2023-02-19T10:33:11.028Z,5.67
2023-02-19T10:38:15.876Z,5.57
2023-02-19T10:43:31.120Z,5.62
2023-02-19T10:48:38.256Z,5.78
2023-02-19T10:53:40.794Z,6.05
2023-02-19T10:58:44.923Z,6.20
2023-02-19T11:03:51.489Z,6.23
2023-02-19T11:08:58.696Z,6.37
2023-02-19T11:14:13.654Z,6.62
2023-02-19T11:19:23.526Z,6.94
2023-02-19T11:24:28.935Z,7.15
2023-02-19T11:29:34.818Z,7.24
2023-02-19T11:34:37.362Z,7.32
2023-02-19T11:39:43.133Z,7.24
2023-02-19T11:44:50.619Z,7.25
2023-02-19T11:49:58.934Z,7.04
2023-02-19T11:55:04.330Z,6.89
2023-02-19T12:00:11.728Z,6.86
2023-02-19T12:05:20.108Z,6.68
2023-02-19T12:10:28.669Z,6.48
2023-02-19T12:15:39.791Z,6.39
2023-02-19T12:20:48.120Z,6.64
2023-02-19T12:25:57.901Z,7.08
2023-02-19T12:31:06.446Z,7.29
2023-02-19T12:36:15.968Z,7.23
2023-02-19T12:41:28.117Z,6.99
2023-02-19T12:46:36.109Z,6.76
2023-02-19T12:51:46.617Z,6.68
2023-02-19T12:56:56.519Z,6.63
2023-02-19T13:02:10.689Z,6.78
2023-02-19T13:07:16.181Z,6.94
2023-02-19T13:12:26.199Z,6.87
2023-02-19T13:17:36.928Z,6.57
2023-02-19T13:22:57.521Z,6.14
2023-02-19T13:28:12.950Z,6.03
2023-02-19T13:33:30.483Z,6.20
2023-02-19T13:38:42.066Z,6.52
2023-02-19T13:43:46.839Z,6.38
2023-02-19T13:49:12.163Z,6.02
2023-02-19T13:54:28.783Z,5.67
2023-02-19T13:59:36.321Z,5.56
2023-02-19T14:04:42.770Z,5.41
2023-02-19T14:09:48.489Z,5.09
2023-02-19T14:14:53.082Z,4.83
2023-02-19T14:20:01.610Z,4.62
2023-02-19T14:25:14.549Z,4.52
2023-02-19T14:30:18.037Z,4.53
2023-02-19T14:35:24.059Z,4.66
2023-02-19T14:40:37.904Z,4.77
2023-02-19T14:45:45.250Z,4.91
2023-02-19T14:50:50.782Z,4.91
2023-02-19T14:55:55.596Z,4.69
2023-02-19T15:01:09.479Z,4.50
2023-02-19T15:06:17.423Z,4.39
2023-02-19T15:11:23.542Z,4.31
2023-02-19T15:16:28.723Z,4.17
2023-02-19T15:21:33.088Z,4.06
2023-02-19T15:26:41.056Z,3.96
2023-02-19T15:31:50.160Z,3.84
2023-02-19T15:37:01.738Z,3.70
2023-02-19T15:42:06.555Z,3.55
2023-02-19T15:47:14.248Z,3.40
2023-02-19T15:52:27.320Z,3.25
2023-02-19T15:57:35.783Z,3.10
2023-02-19T16:02:39.140Z,2.92
2023-02-19T16:07:43.528Z,2.76
2023-02-19T16:12:51.831Z,2.63
2023-02-19T16:17:55.337Z,2.50
2023-02-19T16:23:02.665Z,2.39
2023-02-19T16:28:10.977Z,2.27
2023-02-19T16:33:19.322Z,2.13
2023-02-19T16:38:21.822Z,2.00
2023-02-19T16:43:26.045Z,1.86
2023-02-19T16:48:30.901Z,1.74
2023-02-19T16:53:33.701Z,1.64
2023-02-19T16:58:38.791Z,1.54
2023-02-19T17:03:42.713Z,1.42
2023-02-19T17:08:45.379Z,1.34
2023-02-19T17:13:47.952Z,1.26
2023-02-19T17:18:51.133Z,1.15
2023-02-19T17:23:54.065Z,1.07
2023-02-19T17:28:58.702Z,1.04
2023-02-19T17:34:01.538Z,1.06
2023-02-19T17:39:07.053Z,1.11
2023-02-19T17:44:10.126Z,1.10
2023-02-19T17:49:13.352Z,1.05
2023-02-19T17:54:18.259Z,1.03
2023-02-19T17:59:22.861Z,1.03
2023-02-19T18:04:25.347Z,1.01
2023-02-19T18:09:29.828Z,0.97
2023-02-19T18:14:32.369Z,0.94
2023-02-19T18:19:34.957Z,0.91
2023-02-19T18:24:37.527Z,0.85
2023-02-19T18:29:40.399Z,0.81
2023-02-19T18:34:42.926Z,0.85
2023-02-19T18:39:45.822Z,0.89
2023-02-19T18:44:49.590Z,0.95
2023-02-19T18:49:54.667Z,0.96
2023-02-19T18:54:57.331Z,0.95
2023-02-19T18:59:59.812Z,0.92
2023-02-19T19:05:02.373Z,0.83
2023-02-19T19:10:06.166Z,0.76
2023-02-19T19:15:09.070Z,0.80
2023-02-19T19:20:11.943Z,0.85
2023-02-19T19:25:15.125Z,0.83
2023-02-19T19:30:19.831Z,0.80
2023-02-19T19:35:22.818Z,0.80
2023-02-19T19:40:25.402Z,0.89
2023-02-19T19:45:27.968Z,1.01
2023-02-19T19:50:30.598Z,1.11
2023-02-19T19:55:33.086Z,1.16
2023-02-19T20:00:35.787Z,1.16
2023-02-19T20:05:38.265Z,1.17
2023-02-19T20:10:40.948Z,1.15
2023-02-19T20:15:43.698Z,1.13
2023-02-19T20:20:46.325Z,1.15
2023-02-19T20:25:48.876Z,1.23
2023-02-19T20:30:51.409Z,1.35
2023-02-19T20:35:54.054Z,1.43
2023-02-19T20:40:58.158Z,1.45
2023-02-19T20:46:01.105Z,1.41
2023-02-19T20:51:03.798Z,1.43
2023-02-19T20:56:06.597Z,1.51
2023-02-19T21:01:11.473Z,1.58
2023-02-19T21:06:14.238Z,1.61
2023-02-19T21:11:16.907Z,1.61
2023-02-19T21:16:19.403Z,1.65
2023-02-19T21:21:25.289Z,1.70
2023-02-19T21:26:33.358Z,1.62
2023-02-19T21:31:41.934Z,1.47
2023-02-19T21:36:46.696Z,1.32
2023-02-19T21:41:49.641Z,1.20
2023-02-19T21:46:52.143Z,1.16
2023-02-19T21:51:54.633Z,1.17
2023-02-19T21:56:57.183Z,1.17
2023-02-19T22:01:59.843Z,1.15
2023-02-19T22:07:02.377Z,1.19
2023-02-19T22:12:05.177Z,1.25
2023-02-19T22:17:07.664Z,1.26
2023-02-19T22:22:10.748Z,1.29
2023-02-19T22:27:13.305Z,1.31
2023-02-19T22:32:16.511Z,1.33
2023-02-19T22:37:19.218Z,1.37
2023-02-19T22:42:21.818Z,1.41
2023-02-19T22:47:25.468Z,1.42
2023-02-19T22:52:30.581Z,1.40
2023-02-19T22:57:33.928Z,1.39
2023-02-19T23:02:36.619Z,1.32
2023-02-19T23:07:42.604Z,1.29
2023-02-19T23:12:45.098Z,1.27
2023-02-19T23:17:47.637Z,1.26
2023-02-19T23:22:50.361Z,1.30
2023-02-19T23:27:53.057Z,1.32
2023-02-19T23:32:55.559Z,1.33
2023-02-19T23:37:58.053Z,1.36
2023-02-19T23:43:03.900Z,1.37
2023-02-19T23:48:08.885Z,1.38
2023-02-19T23:53:11.506Z,1.37
2023-02-19T23:58:14.172Z,1.34
